»·PEaware :: ASA2020 KSAN-KSFO

ASA2020 :: KSAN-KSFO

FLIGHT INFORMATION

Flight Status: Arrived
Operator:
Alaska Airlines
More flights by this operator :: More flights under this callsign
Pilot: Will K. (13011)
Aircraft: AIRBUS A320
(A320)
More flights by this aircraft type
Origin: KSAN San Diego Intl-Lindbergh
United States
Destination: KSFO San Francisco Intl
United States
More flights between these airports :: More routes between these airports
Route: PADRZ2 IKAYE RIZIN SPLNT STOKD SERFR SERFR3
File this flight plan on PilotEdge
Remarks:
Altitude:
(Current/Filed)
34,000ft
Speed:
(Current/Filed)
360kts
Departed: 26-Jul-18 09:18 PM
Arrived: 26-Jul-18 10:21 PM
Distance/Time
Traveled:
388nm/1:03
Distance/Time
To Go:
Arrived

Flight Plot

Page will automatically refresh every two minutes.

Flight plan parsing failed; only flown route is shown


Map Options




Map Legend


Flown Route
Filed Route
Departure Airport
Arrival Airport
Navaid (VOR, NDB)
Fix

Horizontal Profiles

Position Reports

Time Latitude Longitude Heading Altitude Ground
Speed
26-Jul-18 20:38 32.733835 -117.198135 207 21ft 0kts
26-Jul-18 20:39 32.733835 -117.198135 207 21ft 0kts
26-Jul-18 20:40 32.733835 -117.198135 207 21ft 0kts
26-Jul-18 20:41 32.733835 -117.198135 207 21ft 0kts
26-Jul-18 20:42 32.733835 -117.198135 207 21ft 0kts
26-Jul-18 20:43 32.733835 -117.198135 207 21ft 0kts
26-Jul-18 20:44 32.733835 -117.198135 207 21ft 0kts
26-Jul-18 20:45 32.733835 -117.198135 207 21ft 0kts
26-Jul-18 20:46 32.733835 -117.198135 207 21ft 0kts
26-Jul-18 20:47 32.733835 -117.198135 207 21ft 0kts
26-Jul-18 20:48 32.733835 -117.198135 207 21ft 0kts
26-Jul-18 20:49 32.733835 -117.198135 207 21ft 0kts
26-Jul-18 20:50 32.733835 -117.198135 207 21ft 0kts
26-Jul-18 20:51 32.733835 -117.198135 207 21ft 0kts
26-Jul-18 20:52 32.733835 -117.198135 207 21ft 0kts
26-Jul-18 20:53 32.733835 -117.198135 207 21ft 0kts
26-Jul-18 20:54 32.733835 -117.198135 207 21ft 0kts
26-Jul-18 20:55 32.733835 -117.198135 207 21ft 0kts
26-Jul-18 20:56 32.733835 -117.198135 207 21ft 0kts
26-Jul-18 20:57 32.733835 -117.198135 207 21ft 0kts
26-Jul-18 20:58 32.733835 -117.198135 207 21ft 0kts
26-Jul-18 20:59 32.733835 -117.198135 207 21ft 0kts
26-Jul-18 21:00 32.733835 -117.198135 207 21ft 0kts
26-Jul-18 21:01 32.733835 -117.198135 207 21ft 0kts
26-Jul-18 21:02 32.733835 -117.198135 207 21ft 0kts
26-Jul-18 21:03 32.733836 -117.198134 207 21ft 0kts
26-Jul-18 21:04 32.733836 -117.198134 207 21ft 0kts
26-Jul-18 21:05 32.733836 -117.198134 207 21ft 0kts
26-Jul-18 21:06 32.734048 -117.198006 207 21ft 2kts
26-Jul-18 21:07 32.734505 -117.197797 116 21ft 0kts
26-Jul-18 21:08 32.734523 -117.197887 104 21ft 0kts
26-Jul-18 21:09 32.734523 -117.197886 104 21ft 0kts
26-Jul-18 21:10 32.734453 -117.197587 106 21ft 12kts
26-Jul-18 21:11 32.733444 -117.193482 105 22ft 13kts
26-Jul-18 21:12 32.732436 -117.189325 106 22ft 17kts
26-Jul-18 21:13 32.731179 -117.184122 106 21ft 19kts
26-Jul-18 21:14 32.729813 -117.178530 105 21ft 15kts
26-Jul-18 21:15 32.729487 -117.177139 100 22ft 0kts
26-Jul-18 21:16 32.729487 -117.177139 100 22ft 0kts
26-Jul-18 21:17 32.729860 -117.175806 45 27ft 5kts
26-Jul-18 21:18 32.730339 -117.176410 286 27ft 31kts
26-Jul-18 21:19 32.744602 -117.221207 302 2048ft 183kts
26-Jul-18 21:20 32.778512 -117.281355 302 4774ft 262kts
26-Jul-18 21:21 32.823319 -117.355309 306 8418ft 288kts
26-Jul-18 21:22 32.874114 -117.433969 306 11251ft 332kts
26-Jul-18 21:23 32.933685 -117.526478 306 13848ft 364kts
26-Jul-18 21:24 32.995389 -117.622766 306 15022ft 367kts
26-Jul-18 21:25 33.057993 -117.720327 308 16751ft 381kts
26-Jul-18 21:26 33.136258 -117.803183 317 19058ft 396kts
26-Jul-18 21:27 33.219036 -117.891864 312 21158ft 408kts
26-Jul-18 21:28 33.299191 -117.987493 312 22948ft 417kts
26-Jul-18 21:29 33.381173 -118.085557 312 23131ft 418kts
26-Jul-18 21:30 33.464799 -118.185847 312 24734ft 431kts
26-Jul-18 21:31 33.551103 -118.289659 312 25857ft 452kts
26-Jul-18 21:32 33.638879 -118.395584 311 27698ft 451kts
26-Jul-18 21:33 33.728137 -118.503598 311 29004ft 459kts
26-Jul-18 21:34 33.817545 -118.612168 311 30703ft 455kts
26-Jul-18 21:35 33.903794 -118.717214 310 32306ft 451kts
26-Jul-18 21:36 33.991559 -118.824435 309 33799ft 448kts
26-Jul-18 21:37 34.078655 -118.931175 309 34057ft 446kts
26-Jul-18 21:38 34.156316 -119.035892 297 34060ft 441kts
26-Jul-18 21:39 34.220840 -119.161103 297 34058ft 440kts
26-Jul-18 21:40 34.285106 -119.286136 297 34055ft 440kts
26-Jul-18 21:41 34.349424 -119.411717 297 34057ft 440kts
26-Jul-18 21:42 34.415400 -119.536395 305 34062ft 445kts
26-Jul-18 21:43 34.502001 -119.644182 310 34088ft 448kts
26-Jul-18 21:44 34.588754 -119.751167 310 34107ft 447kts
26-Jul-18 21:45 34.676724 -119.859963 310 34100ft 459kts
26-Jul-18 21:46 34.766096 -119.970842 310 34100ft 458kts
26-Jul-18 21:47 34.854793 -120.081263 310 34101ft 458kts
26-Jul-18 21:48 34.943640 -120.192222 309 34118ft 457kts
26-Jul-18 21:49 35.031678 -120.302537 309 34136ft 454kts
26-Jul-18 21:50 35.118068 -120.406824 313 34105ft 452kts
26-Jul-18 21:51 35.210213 -120.510049 313 34059ft 451kts
26-Jul-18 21:52 35.302144 -120.613398 313 34056ft 451kts
26-Jul-18 21:53 35.393580 -120.716518 312 34075ft 453kts
26-Jul-18 21:54 35.486754 -120.820635 316 34070ft 456kts
26-Jul-18 21:55 35.587789 -120.914908 318 34069ft 458kts
26-Jul-18 21:56 35.689315 -121.009375 318 34065ft 458kts
26-Jul-18 21:57 35.790833 -121.104121 318 34056ft 459kts
26-Jul-18 21:58 35.892319 -121.199144 318 34051ft 460kts
26-Jul-18 21:59 35.994023 -121.294685 318 34087ft 461kts
26-Jul-18 22:00 36.097552 -121.387425 323 31946ft 465kts
26-Jul-18 22:01 36.191242 -121.460481 324 29672ft 457kts
26-Jul-18 22:02 36.296351 -121.542777 324 27444ft 440kts
26-Jul-18 22:03 36.397487 -121.622176 325 25225ft 421kts
26-Jul-18 22:04 36.492972 -121.697357 325 23554ft 391kts
26-Jul-18 22:05 36.581947 -121.767689 325 21670ft 372kts
26-Jul-18 22:06 36.667797 -121.835695 326 19547ft 362kts
26-Jul-18 22:07 36.752791 -121.897246 344 17529ft 350kts
26-Jul-18 22:08 36.846013 -121.923336 346 15609ft 338kts
26-Jul-18 22:09 36.935966 -121.948523 347 13751ft 327kts
26-Jul-18 22:10 37.021913 -121.980404 342 11936ft 318kts
26-Jul-18 22:11 37.103976 -122.012422 342 10437ft 302kts
26-Jul-18 22:12 37.175512 -122.040436 342 9643ft 274kts
26-Jul-18 22:13 37.247416 -122.068588 342 8301ft 268kts
26-Jul-18 22:14 37.316645 -122.095803 341 7185ft 260kts
26-Jul-18 22:15 37.385051 -122.122606 343 6050ft 255kts
26-Jul-18 22:16 37.453941 -122.146644 343 4889ft 257kts
26-Jul-18 22:17 37.519664 -122.169729 343 4015ft 224kts
26-Jul-18 22:18 37.563357 -122.209783 294 3470ft 192kts
26-Jul-18 22:19 37.583469 -122.265947 294 2770ft 153kts
26-Jul-18 22:20 37.596290 -122.310352 291 1582ft 128kts
26-Jul-18 22:21 37.610830 -122.350777 297 227ft 121kts
26-Jul-18 22:22 37.620068 -122.372868 296 21ft 22kts
26-Jul-18 22:23 37.622151 -122.379842 278 21ft 9kts
26-Jul-18 22:24 37.622247 -122.380731 277 21ft 0kts
26-Jul-18 22:25 37.621268 -122.383188 200 21ft 6kts
26-Jul-18 22:26 37.619909 -122.382684 125 21ft 5kts
26-Jul-18 22:27 37.618500 -122.382214 137 21ft 9kts
26-Jul-18 22:28 37.618350 -122.382041 138 21ft 0kts
26-Jul-18 22:29 37.618350 -122.382041 138 21ft 0kts
26-Jul-18 22:30 37.618350 -122.382041 138 21ft 0kts
26-Jul-18 22:31 37.618350 -122.382041 138 21ft 0kts
26-Jul-18 22:32 37.618350 -122.382041 138 21ft 0kts
26-Jul-18 22:33 37.618350 -122.382041 138 21ft 0kts
26-Jul-18 22:34 37.618350 -122.382041 138 21ft 0kts
26-Jul-18 22:35 37.618350 -122.382041 138 21ft 0kts
26-Jul-18 22:36 37.618350 -122.382041 138 21ft 0kts

Navigation Log

Ident Type
Flight plan parsing failed, navigation log unavailable